createdAt,value
2018-08-10T00:01:29.596Z,100932.50
2018-08-10T00:03:58.220Z,100936.34
2018-08-10T00:06:27.114Z,100935.78
2018-08-10T00:08:55.680Z,100938.52
2018-08-10T00:11:24.904Z,100948.09
2018-08-10T00:13:53.450Z,100950.28
2018-08-10T00:16:22.072Z,100955.75
2018-08-10T00:18:50.698Z,100958.97
2018-08-10T00:21:19.212Z,100982.20
2018-08-10T00:23:47.841Z,101028.26
2018-08-10T00:26:16.384Z,101020.41
2018-08-10T00:28:44.981Z,101024.68
2018-08-10T00:31:13.930Z,101034.11
2018-08-10T00:33:42.644Z,101032.48
2018-08-10T00:36:11.230Z,101034.39
2018-08-10T00:38:40.191Z,101045.02
2018-08-10T00:41:08.845Z,101030.29
2018-08-10T00:43:37.418Z,101019.30
2018-08-10T00:46:06.247Z,101013.09
2018-08-10T00:48:34.883Z,101035.23
2018-08-10T00:51:03.822Z,101064.97
2018-08-10T00:53:32.456Z,101070.43
2018-08-10T00:56:00.951Z,101084.37
2018-08-10T00:58:29.539Z,101091.81
2018-08-10T01:00:58.161Z,101105.22
2018-08-10T01:03:26.773Z,101113.13
2018-08-10T01:05:55.288Z,101122.97
2018-08-10T01:08:23.816Z,101115.87
2018-08-10T01:10:52.303Z,101124.59
2018-08-10T01:13:21.729Z,101131.42
2018-08-10T01:15:50.562Z,101145.37
2018-08-10T01:18:19.081Z,101147.75
2018-08-10T01:20:47.745Z,101149.88
2018-08-10T01:23:16.755Z,101157.89
2018-08-10T01:25:45.249Z,101157.61
2018-08-10T01:28:13.835Z,101164.70
2018-08-10T01:30:42.411Z,101178.34
2018-08-10T01:33:10.920Z,101185.72
2018-08-10T01:35:39.781Z,101186.50
2018-08-10T01:38:08.400Z,101191.14
2018-08-10T01:40:36.962Z,101208.81
2018-08-10T01:43:05.532Z,101209.41
2018-08-10T01:45:34.083Z,101207.52
2018-08-10T01:48:02.863Z,101212.34
2018-08-10T01:50:31.397Z,101224.23
2018-08-10T01:52:59.976Z,101216.64
2018-08-10T01:55:28.522Z,101213.61
2018-08-10T01:57:57.145Z,101227.74
2018-08-10T02:00:25.641Z,101221.69
2018-08-10T02:02:54.363Z,101225.55
2018-08-10T02:05:23.064Z,101236.31
2018-08-10T02:07:51.602Z,101239.84
2018-08-10T02:10:20.488Z,101254.06
2018-08-10T02:12:53.884Z,101242.93
2018-08-10T02:15:22.590Z,101255.98
2018-08-10T02:17:51.116Z,101258.37
2018-08-10T02:20:22.006Z,101252.19
2018-08-10T02:22:50.535Z,101248.75
2018-08-10T02:25:20.700Z,101257.00
2018-08-10T02:27:50.218Z,101266.59
2018-08-10T02:30:20.116Z,101261.55
2018-08-10T02:32:49.713Z,101274.34
2018-08-10T02:35:18.272Z,101277.39
2018-08-10T02:37:46.982Z,101267.45
2018-08-10T02:40:18.159Z,101284.33
2018-08-10T02:42:47.944Z,101291.36
2018-08-10T02:45:17.117Z,101295.13
2018-08-10T02:47:46.366Z,101286.08
2018-08-10T02:50:15.092Z,101307.89
2018-08-10T02:52:43.647Z,101310.93
2018-08-10T02:55:12.595Z,101318.88
2018-08-10T02:57:41.505Z,101327.39
2018-08-10T03:00:13.333Z,101317.27
2018-08-10T03:02:42.364Z,101330.17
2018-08-10T03:05:11.424Z,101335.28
2018-08-10T03:07:40.421Z,101337.75
2018-08-10T03:10:10.637Z,101336.95
2018-08-10T03:12:39.421Z,101350.66
2018-08-10T03:15:12.149Z,101357.43
2018-08-10T03:17:40.709Z,101371.89
2018-08-10T03:20:09.484Z,101375.14
2018-08-10T03:22:38.070Z,101368.50
2018-08-10T03:25:07.297Z,101380.02
2018-08-10T03:27:35.886Z,101381.47
2018-08-10T03:30:05.607Z,101386.92
2018-08-10T03:32:34.084Z,101398.22
2018-08-10T03:35:02.914Z,101409.34
2018-08-10T03:37:31.444Z,101415.63
2018-08-10T03:39:59.941Z,101419.33
2018-08-10T03:42:28.888Z,101427.67
2018-08-10T03:44:57.681Z,101435.02
2018-08-10T03:47:26.389Z,101434.00
2018-08-10T03:49:55.025Z,101439.98
2018-08-10T03:52:23.634Z,101447.08
2018-08-10T03:54:52.204Z,101452.00
2018-08-10T03:57:21.046Z,101452.56
2018-08-10T03:59:49.524Z,101468.52
2018-08-10T04:02:18.142Z,101468.54
2018-08-10T04:04:46.882Z,101474.04
2018-08-10T04:07:15.501Z,101472.33
2018-08-10T04:09:44.085Z,101480.45
2018-08-10T04:12:12.629Z,101486.05
2018-08-10T04:14:41.322Z,101487.39
2018-08-10T04:17:16.676Z,101481.31
2018-08-10T04:19:45.247Z,101485.19
2018-08-10T04:22:14.140Z,101492.23
2018-08-10T04:24:42.970Z,101497.98
2018-08-10T04:27:11.545Z,101497.86
2018-08-10T04:29:40.228Z,101496.67
2018-08-10T04:32:09.286Z,101503.71
2018-08-10T04:34:37.878Z,101509.87
2018-08-10T04:37:06.786Z,101504.46
2018-08-10T04:39:35.355Z,101515.45
2018-08-10T04:42:03.860Z,101518.16
2018-08-10T04:44:32.864Z,101519.09
2018-08-10T04:47:01.458Z,101526.91
2018-08-10T04:49:30.017Z,101523.08
2018-08-10T04:51:58.949Z,101535.39
2018-08-10T04:54:27.841Z,101541.42
2018-08-10T04:56:56.446Z,101539.48
2018-08-10T04:59:25.014Z,101543.39
2018-08-10T05:01:53.704Z,101549.61
2018-08-10T05:04:22.952Z,101555.36
2018-08-10T05:06:51.625Z,101556.16
2018-08-10T05:09:20.141Z,101563.64
2018-08-10T05:11:48.868Z,101567.30
2018-08-10T05:14:17.346Z,101570.39
2018-08-10T05:16:45.909Z,101572.81
2018-08-10T05:19:14.416Z,101573.89
2018-08-10T05:21:42.936Z,101572.81
2018-08-10T05:24:11.484Z,101584.55
2018-08-10T05:26:40.033Z,101587.33
2018-08-10T05:29:08.586Z,101589.93
2018-08-10T05:31:37.155Z,101591.74
2018-08-10T05:34:05.693Z,101585.71
2018-08-10T05:36:34.253Z,101584.40
2018-08-10T05:39:02.905Z,101598.30
2018-08-10T05:41:31.834Z,101603.23
2018-08-10T05:44:00.403Z,101600.72
2018-08-10T05:46:29.306Z,101613.44
2018-08-10T05:48:57.845Z,101602.23
2018-08-10T05:51:26.481Z,101603.45
2018-08-10T05:53:55.010Z,101605.41
2018-08-10T05:56:23.535Z,101601.84
2018-08-10T05:58:52.068Z,101593.70
2018-08-10T06:01:20.588Z,101606.50
2018-08-10T06:03:49.130Z,101601.83
2018-08-10T06:06:17.681Z,101607.41
2018-08-10T06:08:46.239Z,101607.49
2018-08-10T06:11:14.853Z,101614.81
2018-08-10T06:13:43.378Z,101624.48
2018-08-10T06:16:11.992Z,101618.27
2018-08-10T06:18:40.620Z,101634.35
2018-08-10T06:21:09.171Z,101640.41
2018-08-10T06:23:37.777Z,101637.47
2018-08-10T06:26:06.347Z,101639.66
2018-08-10T06:28:34.929Z,101636.05
2018-08-10T06:31:04.225Z,101632.98
2018-08-10T06:33:32.762Z,101631.46
2018-08-10T06:36:01.445Z,101641.22
2018-08-10T06:38:29.950Z,101639.05
2018-08-10T06:40:58.474Z,101646.56
2018-08-10T06:43:27.053Z,101641.18
2018-08-10T06:45:55.537Z,101638.17
2018-08-10T06:48:24.095Z,101643.84
2018-08-10T06:50:52.730Z,101646.40
2018-08-10T06:53:21.281Z,101646.33
2018-08-10T06:55:50.079Z,101650.70
2018-08-10T06:58:18.535Z,101644.03
2018-08-10T07:00:47.211Z,101649.07
2018-08-10T07:03:15.675Z,101645.60
2018-08-10T07:05:44.181Z,101655.70
2018-08-10T07:08:12.793Z,101663.00
2018-08-10T07:10:45.586Z,101655.03
2018-08-10T07:13:14.152Z,101666.88
2018-08-10T07:15:42.732Z,101671.64
2018-08-10T07:18:11.227Z,101670.45
2018-08-10T07:20:39.812Z,101678.80
2018-08-10T07:23:08.398Z,101674.25
2018-08-10T07:25:37.169Z,101681.78
2018-08-10T07:28:05.733Z,101681.63
2018-08-10T07:30:34.326Z,101684.87
2018-08-10T07:33:03.025Z,101689.39
2018-08-10T07:35:31.608Z,101682.25
2018-08-10T07:38:00.218Z,101695.19
2018-08-10T07:40:28.705Z,101678.66
2018-08-10T07:42:57.233Z,101683.25
2018-08-10T07:45:25.725Z,101675.72
2018-08-10T07:47:54.609Z,101687.61
2018-08-10T07:50:23.093Z,101692.23
2018-08-10T07:52:51.601Z,101688.56
2018-08-10T07:55:20.115Z,101693.53
2018-08-10T07:57:48.616Z,101684.36
2018-08-10T08:00:17.207Z,101684.27
2018-08-10T08:02:45.713Z,101689.27
2018-08-10T08:05:14.267Z,101672.30
2018-08-10T08:07:42.808Z,101684.64
2018-08-10T08:10:11.387Z,101690.39
2018-08-10T08:12:39.894Z,101687.37
2018-08-10T08:15:08.679Z,101682.48
2018-08-10T08:17:37.612Z,101672.40
2018-08-10T08:20:06.804Z,101674.09
2018-08-10T08:22:35.385Z,101674.70
2018-08-10T08:25:03.923Z,101682.70
2018-08-10T08:27:32.517Z,101683.39
2018-08-10T08:30:01.008Z,101682.30
2018-08-10T08:32:29.620Z,101680.20
2018-08-10T08:34:58.248Z,101684.20
2018-08-10T08:37:26.729Z,101680.25
2018-08-10T08:40:06.621Z,101685.80
2018-08-10T08:42:35.138Z,101685.50
2018-08-10T08:46:10.992Z,101686.59
2018-08-10T08:48:41.605Z,101692.38
2018-08-10T08:51:18.947Z,101692.13
2018-08-10T08:53:47.601Z,101687.76
2018-08-10T08:56:19.434Z,101696.00
2018-08-10T08:58:49.336Z,101687.50
2018-08-10T09:01:18.109Z,101684.75
2018-08-10T09:04:57.749Z,101691.55
2018-08-10T09:07:27.264Z,101682.80
2018-08-10T09:09:56.058Z,101686.87
2018-08-10T09:12:24.652Z,101687.67
2018-08-10T09:15:07.158Z,101681.38
2018-08-10T09:17:35.772Z,101678.16
2018-08-10T09:20:05.178Z,101686.73
2018-08-10T09:22:33.748Z,101684.25
2018-08-10T09:25:02.393Z,101681.17
2018-08-10T09:27:30.946Z,101684.26
2018-08-10T09:29:59.476Z,101670.23
2018-08-10T09:32:28.003Z,101675.47
2018-08-10T09:34:56.512Z,101677.11
2018-08-10T09:37:25.097Z,101686.12
2018-08-10T09:39:53.584Z,101689.71
2018-08-10T09:42:22.257Z,101683.09
2018-08-10T09:44:50.788Z,101676.75
2018-08-10T09:47:19.304Z,101678.12
2018-08-10T09:49:49.056Z,101684.97
2018-08-10T09:52:17.597Z,101681.13
2018-08-10T09:55:36.942Z,101691.91
2018-08-10T09:58:09.477Z,101692.75
2018-08-10T10:00:43.506Z,101691.36
2018-08-10T10:03:17.719Z,101698.02
2018-08-10T10:05:47.411Z,101688.62
2018-08-10T10:08:16.249Z,101684.61
2018-08-10T10:10:44.794Z,101688.01
2018-08-10T10:13:13.447Z,101683.59
2018-08-10T10:15:42.387Z,101708.97
2018-08-10T10:18:12.151Z,101683.02
2018-08-10T10:20:41.102Z,101687.80
2018-08-10T10:23:09.721Z,101696.56
2018-08-10T10:25:38.241Z,101690.47
2018-08-10T10:28:06.981Z,101711.90
2018-08-10T10:30:35.620Z,101700.48
2018-08-10T10:33:04.333Z,101707.09
2018-08-10T10:35:32.861Z,101708.47
2018-08-10T10:38:01.469Z,101711.58
2018-08-10T10:40:29.990Z,101706.45
2018-08-10T10:42:58.538Z,101708.31
2018-08-10T10:45:27.037Z,101707.08
2018-08-10T10:47:55.603Z,101710.70
2018-08-10T10:50:53.913Z,101706.87
2018-08-10T10:53:22.536Z,101706.23
2018-08-10T10:55:51.062Z,101715.34
2018-08-10T10:58:21.559Z,101711.81
2018-08-10T11:00:50.241Z,101706.39
2018-08-10T11:03:18.806Z,101721.44
2018-08-10T11:05:47.437Z,101718.73
2018-08-10T11:08:16.022Z,101711.55
2018-08-10T11:10:44.558Z,101713.48
2018-08-10T11:13:13.112Z,101708.95
2018-08-10T11:15:41.639Z,101694.13
2018-08-10T11:18:10.240Z,101705.09
2018-08-10T11:20:38.748Z,101706.78
2018-08-10T11:23:07.640Z,101709.59
2018-08-10T11:25:36.382Z,101718.43
2018-08-10T11:28:04.884Z,101703.80
2018-08-10T11:30:33.592Z,101707.02
2018-08-10T11:33:02.118Z,101710.64
2018-08-10T11:35:30.702Z,101717.02
2018-08-10T11:37:59.222Z,101715.84
2018-08-10T11:40:27.771Z,101711.59
2018-08-10T11:42:56.307Z,101712.13
2018-08-10T11:45:24.928Z,101716.08
2018-08-10T11:47:53.717Z,101710.12
2018-08-10T11:50:22.327Z,101697.61
2018-08-10T11:52:50.915Z,101697.73
2018-08-10T11:55:19.429Z,101712.59
2018-08-10T11:57:47.963Z,101699.92
2018-08-10T12:00:16.826Z,101709.53
2018-08-10T12:02:45.401Z,101701.33
2018-08-10T12:05:14.540Z,101710.03
2018-08-10T12:07:43.204Z,101697.83
2018-08-10T12:10:11.777Z,101700.59
2018-08-10T12:12:40.357Z,101696.97
2018-08-10T12:15:11.065Z,101699.84
2018-08-10T12:17:39.832Z,101724.72
2018-08-10T12:20:08.795Z,101707.62
2018-08-10T12:22:37.499Z,101710.31
2018-08-10T12:25:06.260Z,101716.59
2018-08-10T12:27:34.954Z,101734.95
2018-08-10T12:30:04.602Z,101732.25
2018-08-10T12:32:33.223Z,101722.98
2018-08-10T12:35:01.748Z,101726.05
2018-08-10T12:37:30.244Z,101730.66
2018-08-10T12:39:58.774Z,101737.78
2018-08-10T12:42:27.344Z,101738.41
2018-08-10T12:44:55.836Z,101737.95
2018-08-10T12:47:24.449Z,101746.30
2018-08-10T12:49:53.032Z,101730.87
2018-08-10T12:52:21.596Z,101738.36
2018-08-10T12:54:50.136Z,101731.36
2018-08-10T12:57:18.648Z,101735.09
2018-08-10T12:59:47.324Z,101734.95
2018-08-10T13:02:15.868Z,101734.42
2018-08-10T13:04:44.558Z,101734.15
2018-08-10T13:07:13.311Z,101740.48
2018-08-10T13:09:41.851Z,101736.62
2018-08-10T13:12:10.467Z,101733.81
2018-08-10T13:14:39.007Z,101730.52
2018-08-10T13:17:07.626Z,101727.28
2018-08-10T13:19:36.125Z,101732.88
2018-08-10T13:22:04.765Z,101721.52
2018-08-10T13:24:33.319Z,101721.80
2018-08-10T13:27:01.913Z,101716.03
2018-08-10T13:29:30.534Z,101714.61
2018-08-10T13:31:59.200Z,101720.60
2018-08-10T13:34:27.799Z,101716.16
2018-08-10T13:36:56.295Z,101719.02
2018-08-10T13:39:24.831Z,101717.47
2018-08-10T13:41:53.320Z,101714.69
2018-08-10T13:44:21.964Z,101716.16
2018-08-10T13:46:50.542Z,101718.93
2018-08-10T13:49:19.120Z,101715.65
2018-08-10T13:51:47.666Z,101725.72
2018-08-10T13:54:16.221Z,101726.11
2018-08-10T13:56:44.828Z,101719.95
2018-08-10T13:59:13.346Z,101720.86
2018-08-10T14:01:41.852Z,101733.42
2018-08-10T14:04:10.715Z,101725.34
2018-08-10T14:06:39.272Z,101713.47
2018-08-10T14:09:09.688Z,101724.97
2018-08-10T14:11:38.281Z,101724.20
2018-08-10T14:14:06.792Z,101710.81
2018-08-10T14:16:35.397Z,101710.23
2018-08-10T14:19:04.053Z,101714.00
2018-08-10T14:21:32.788Z,101707.42
2018-08-10T14:24:01.534Z,101711.48
2018-08-10T14:26:30.130Z,101696.91
2018-08-10T14:28:58.648Z,101700.47
2018-08-10T14:31:27.201Z,101692.99
2018-08-10T14:33:55.756Z,101685.36
2018-08-10T14:36:24.264Z,101690.59
2018-08-10T14:38:52.999Z,101690.75
2018-08-10T14:41:21.727Z,101683.98
2018-08-10T14:43:50.334Z,101685.30
2018-08-10T14:46:19.020Z,101678.63
2018-08-10T14:48:47.728Z,101686.36
2018-08-10T14:51:16.264Z,101680.23
2018-08-10T14:53:45.206Z,101684.80
2018-08-10T14:56:13.734Z,101683.05
2018-08-10T14:58:45.454Z,101672.38
2018-08-10T15:01:14.051Z,101685.61
2018-08-10T15:03:42.930Z,101699.89
2018-08-10T15:06:11.481Z,101693.27
2018-08-10T15:08:40.058Z,101709.55
2018-08-10T15:11:08.721Z,101694.53
2018-08-10T15:13:37.253Z,101703.16
2018-08-10T15:16:05.951Z,101705.38
2018-08-10T15:18:34.980Z,101697.41
2018-08-10T15:21:05.712Z,101703.17
2018-08-10T15:23:34.377Z,101695.30
2018-08-10T15:26:02.928Z,101692.81
2018-08-10T15:28:31.516Z,101686.55
2018-08-10T15:31:00.095Z,101684.66
2018-08-10T15:33:28.687Z,101682.42
2018-08-10T15:35:57.264Z,101678.30
2018-08-10T15:38:25.836Z,101672.16
2018-08-10T15:40:54.352Z,101671.07
2018-08-10T15:43:23.035Z,101668.50
2018-08-10T15:45:51.918Z,101673.19
2018-08-10T15:48:20.405Z,101659.48
2018-08-10T15:50:48.966Z,101656.27
2018-08-10T15:53:17.599Z,101651.06
2018-08-10T15:55:46.232Z,101650.83
2018-08-10T15:58:14.903Z,101647.52
2018-08-10T16:00:43.476Z,101649.48
2018-08-10T16:03:12.106Z,101653.09
2018-08-10T16:05:40.706Z,101643.80
2018-08-10T16:08:09.284Z,101642.33
2018-08-10T16:10:38.423Z,101639.91
2018-08-10T16:13:07.085Z,101646.24
2018-08-10T16:15:35.660Z,101643.40
2018-08-10T16:18:04.312Z,101643.66
2018-08-10T16:20:32.939Z,101642.38
2018-08-10T16:23:01.494Z,101648.59
2018-08-10T16:25:30.100Z,101648.06
2018-08-10T16:27:58.740Z,101646.77
2018-08-10T16:30:27.277Z,101632.70
2018-08-10T16:32:55.852Z,101637.58
2018-08-10T16:35:24.376Z,101638.50
2018-08-10T16:37:53.056Z,101632.60
2018-08-10T16:40:21.684Z,101626.18
2018-08-10T16:42:50.278Z,101620.23
2018-08-10T16:45:18.892Z,101623.05
2018-08-10T16:47:47.459Z,101617.20
2018-08-10T16:50:17.652Z,101616.09
2018-08-10T16:52:46.445Z,101614.41
2018-08-10T16:55:17.389Z,101620.70
2018-08-10T16:57:46.600Z,101615.73
2018-08-10T17:00:20.832Z,101615.92
2018-08-10T17:02:49.597Z,101617.96
2018-08-10T17:05:18.238Z,101616.70
2018-08-10T17:07:46.812Z,101612.42
2018-08-10T17:10:15.407Z,101615.52
2018-08-10T17:12:45.083Z,101603.09
2018-08-10T17:15:15.184Z,101601.37
2018-08-10T17:17:44.508Z,101600.25
2018-08-10T17:20:13.485Z,101601.61
2018-08-10T17:22:42.676Z,101603.50
2018-08-10T17:25:12.454Z,101602.30
2018-08-10T17:27:41.136Z,101596.97
2018-08-10T17:30:11.887Z,101598.42
2018-08-10T17:32:40.635Z,101597.34
2018-08-10T17:35:10.912Z,101593.22
2018-08-10T17:37:39.721Z,101586.75
2018-08-10T17:40:09.071Z,101582.16
2018-08-10T17:42:38.358Z,101580.53
2018-08-10T17:45:09.424Z,101584.30
2018-08-10T17:47:38.205Z,101576.69
2018-08-10T17:50:11.812Z,101563.41
2018-08-10T17:52:42.601Z,101577.62
2018-08-10T17:55:11.603Z,101573.39
2018-08-10T17:57:40.175Z,101570.06
2018-08-10T18:00:11.152Z,101571.48
2018-08-10T18:02:39.727Z,101563.59
2018-08-10T18:05:10.426Z,101574.09
2018-08-10T18:07:39.092Z,101562.96
2018-08-10T18:10:08.185Z,101559.17
2018-08-10T18:12:37.281Z,101560.98
2018-08-10T18:15:07.500Z,101551.72
2018-08-10T18:17:36.653Z,101565.97
2018-08-10T18:20:07.631Z,101558.61
2018-08-10T18:22:36.258Z,101561.15
2018-08-10T18:25:05.286Z,101557.84
2018-08-10T18:27:33.887Z,101559.30
2018-08-10T18:30:02.510Z,101559.59
2018-08-10T18:32:31.201Z,101551.67
2018-08-10T18:34:59.762Z,101557.30
2018-08-10T18:37:28.344Z,101556.02
2018-08-10T18:39:56.951Z,101557.42
2018-08-10T18:42:25.510Z,101558.56
2018-08-10T18:44:54.025Z,101560.03
2018-08-10T18:47:22.737Z,101554.30
2018-08-10T18:49:51.265Z,101549.35
2018-08-10T18:52:19.907Z,101548.00
2018-08-10T18:54:48.503Z,101545.30
2018-08-10T18:57:17.092Z,101551.91
2018-08-10T18:59:45.938Z,101545.59
2018-08-10T19:02:14.537Z,101550.00
2018-08-10T19:04:43.082Z,101546.44
2018-08-10T19:07:12.172Z,101548.61
2018-08-10T19:09:40.798Z,101540.66
2018-08-10T19:12:09.484Z,101537.08
2018-08-10T19:14:38.135Z,101534.61
2018-08-10T19:17:06.719Z,101539.27
2018-08-10T19:19:35.288Z,101535.70
2018-08-10T19:22:04.013Z,101536.27
2018-08-10T19:24:32.898Z,101539.27
2018-08-10T19:27:01.516Z,101536.53
2018-08-10T19:29:30.171Z,101533.52
2018-08-10T19:31:58.841Z,101535.99
2018-08-10T19:34:27.367Z,101533.52
2018-08-10T19:36:56.162Z,101534.33
2018-08-10T19:39:24.706Z,101526.09
2018-08-10T19:41:53.275Z,101527.19
2018-08-10T19:44:21.825Z,101524.70
2018-08-10T19:46:50.458Z,101518.13
2018-08-10T19:49:18.988Z,101522.23
2018-08-10T19:51:47.552Z,101521.97
2018-08-10T19:54:16.120Z,101519.77
2018-08-10T19:56:44.679Z,101519.77
2018-08-10T19:59:13.254Z,101520.31
2018-08-10T20:01:41.880Z,101518.41
2018-08-10T20:04:10.464Z,101514.53
2018-08-10T20:06:39.145Z,101518.66
2018-08-10T20:09:10.956Z,101515.36
2018-08-10T20:11:39.492Z,101509.61
2018-08-10T20:14:08.530Z,101512.61
2018-08-10T20:16:37.218Z,101511.52
2018-08-10T20:19:05.843Z,101506.57
2018-08-10T20:21:34.463Z,101509.33
2018-08-10T20:24:03.315Z,101506.03
2018-08-10T20:26:31.898Z,101506.57
2018-08-10T20:29:00.617Z,101504.09
2018-08-10T20:31:29.589Z,101502.17
2018-08-10T20:33:58.159Z,101501.61
2018-08-10T20:36:26.872Z,101512.63
2018-08-10T20:38:55.474Z,101510.16
2018-08-10T20:41:25.500Z,101505.75
2018-08-10T20:43:54.120Z,101508.22
2018-08-10T20:46:22.718Z,101506.30
2018-08-10T20:48:51.269Z,101509.59
2018-08-10T20:51:19.904Z,101512.07
2018-08-10T20:53:48.446Z,101513.72
2018-08-10T20:56:17.248Z,101512.08
2018-08-10T20:58:45.869Z,101520.05
2018-08-10T21:01:14.453Z,101512.61
2018-08-10T21:03:43.383Z,101514.27
2018-08-10T21:06:11.925Z,101516.48
2018-08-10T21:08:40.650Z,101516.20
2018-08-10T21:11:09.221Z,101513.70
2018-08-10T21:13:37.711Z,101511.26
2018-08-10T21:16:06.515Z,101507.95
2018-08-10T21:18:35.090Z,101508.49
2018-08-10T21:21:03.618Z,101506.30
2018-08-10T21:23:32.289Z,101502.46
2018-08-10T21:26:00.810Z,101501.63
2018-08-10T21:28:29.340Z,101499.15
2018-08-10T21:30:57.864Z,101497.52
2018-08-10T21:33:26.431Z,101495.59
2018-08-10T21:35:54.956Z,101487.60
2018-08-10T21:38:23.518Z,101490.64
2018-08-10T21:40:52.057Z,101486.23
2018-08-10T21:43:20.602Z,101485.97
2018-08-10T21:45:49.182Z,101484.58
2018-08-10T21:48:17.756Z,101486.50
2018-08-10T21:50:46.295Z,101485.88
2018-08-10T21:53:14.827Z,101482.04
2018-08-10T21:55:43.351Z,101488.08
2018-08-10T21:58:11.880Z,101480.73
2018-08-10T22:00:52.792Z,101483.47
2018-08-10T22:03:23.271Z,101482.93
2018-08-10T22:05:51.823Z,101493.11
2018-08-10T22:08:21.578Z,101495.56
2018-08-10T22:10:50.512Z,101496.66
2018-08-10T22:13:24.483Z,101493.91
2018-08-10T22:15:58.169Z,101487.05
2018-08-10T22:18:32.044Z,101487.31
2018-08-10T22:21:00.603Z,101488.13
2018-08-10T22:23:29.893Z,101486.40
2018-08-10T22:25:59.319Z,101487.73
2018-08-10T22:28:28.181Z,101485.03
2018-08-10T22:30:56.723Z,101491.25
2018-08-10T22:33:25.327Z,101495.13
2018-08-10T22:35:53.893Z,101497.56
2018-08-10T22:38:22.478Z,101493.69
2018-08-10T22:40:51.117Z,101492.84
2018-08-10T22:43:19.743Z,101495.66
2018-08-10T22:45:48.283Z,101489.86
2018-08-10T22:48:16.805Z,101489.56
2018-08-10T22:50:45.339Z,101495.67
2018-08-10T22:53:14.121Z,101494.59
2018-08-10T22:55:42.841Z,101495.91
2018-08-10T22:58:11.316Z,101488.42
2018-08-10T23:00:40.979Z,101494.16
2018-08-10T23:03:09.516Z,101500.98
2018-08-10T23:05:38.045Z,101504.20
2018-08-10T23:08:06.654Z,101511.27
2018-08-10T23:10:35.253Z,101521.42
2018-08-10T23:13:03.863Z,101535.55
2018-08-10T23:15:32.386Z,101544.43
2018-08-10T23:18:00.934Z,101544.03
2018-08-10T23:20:29.506Z,101549.09
2018-08-10T23:22:58.014Z,101559.56
2018-08-10T23:25:26.526Z,101554.72
2018-08-10T23:27:55.133Z,101550.27
2018-08-10T23:30:23.705Z,101551.61
2018-08-10T23:32:52.237Z,101551.14
2018-08-10T23:35:21.162Z,101550.56
2018-08-10T23:37:49.680Z,101552.46
2018-08-10T23:40:18.231Z,101555.98
2018-08-10T23:42:46.734Z,101551.94
2018-08-10T23:45:15.906Z,101552.02
2018-08-10T23:47:45.565Z,101560.39
2018-08-10T23:50:15.389Z,101576.05
2018-08-10T23:52:44.550Z,101571.06
2018-08-10T23:55:14.888Z,101572.05
2018-08-10T23:57:43.456Z,101580.15
